createdAt,value
2023-04-05T00:00:23.464Z,45.62
2023-04-05T00:02:50.458Z,45.81
2023-04-05T00:05:29.289Z,45.76
2023-04-05T00:07:59.333Z,46.31
2023-04-05T00:10:27.260Z,45.90
2023-04-05T00:12:54.212Z,45.93
2023-04-05T00:15:22.137Z,46.00
2023-04-05T00:17:49.132Z,46.21
2023-04-05T00:20:16.198Z,46.46
2023-04-05T00:22:44.644Z,46.34
2023-04-05T00:25:11.544Z,46.27
2023-04-05T00:27:39.106Z,46.29
2023-04-05T00:30:06.782Z,46.46
2023-04-05T00:32:33.731Z,46.25
2023-04-05T00:35:00.871Z,46.84
2023-04-05T00:37:27.925Z,46.60
2023-04-05T00:39:55.155Z,46.59
2023-04-05T00:42:22.045Z,46.62
2023-04-05T00:44:49.022Z,47.03
2023-04-05T00:47:15.983Z,46.79
2023-04-05T00:49:42.972Z,46.89
2023-04-05T00:52:09.948Z,46.85
2023-04-05T00:54:39.108Z,46.78
2023-04-05T00:57:07.118Z,46.91
2023-04-05T00:59:34.248Z,46.89
2023-04-05T01:02:13.459Z,47.37
2023-04-05T01:04:50.199Z,47.36
2023-04-05T01:07:30.824Z,47.15
2023-04-05T01:10:00.185Z,46.97
2023-04-05T01:12:33.065Z,47.06
2023-04-05T01:15:01.246Z,47.28
2023-04-05T01:17:36.629Z,46.94
2023-04-05T01:20:11.741Z,47.19
2023-04-05T01:23:06.486Z,47.16
2023-04-05T01:26:13.991Z,47.13
2023-04-05T01:29:09.750Z,47.12
2023-04-05T01:31:46.961Z,47.39
2023-04-05T01:34:41.357Z,47.41
2023-04-05T01:37:13.466Z,47.44
2023-04-05T01:39:41.234Z,47.06
2023-04-05T01:42:08.541Z,47.36
2023-04-05T01:44:35.477Z,47.46
2023-04-05T01:47:02.373Z,47.01
2023-04-05T01:49:29.296Z,47.50
2023-04-05T01:51:56.302Z,47.02
2023-04-05T01:54:23.212Z,47.32
2023-04-05T01:56:50.710Z,47.35
2023-04-05T01:59:19.183Z,47.55
2023-04-05T02:01:46.106Z,47.42
2023-04-05T02:04:12.999Z,47.66
2023-04-05T02:06:41.177Z,47.65
2023-04-05T02:09:08.746Z,47.78
2023-04-05T02:11:35.830Z,47.57
2023-04-05T02:14:02.793Z,48.03
2023-04-05T02:16:33.417Z,47.57
2023-04-05T02:19:00.668Z,48.23
2023-04-05T02:21:27.701Z,47.85
2023-04-05T02:23:55.026Z,47.94
2023-04-05T02:26:21.965Z,48.22
2023-04-05T02:28:48.857Z,47.81
2023-04-05T02:31:16.307Z,47.86
2023-04-05T02:33:43.289Z,48.01
2023-04-05T02:36:13.310Z,47.94
2023-04-05T02:38:40.815Z,48.03
2023-04-05T02:41:14.358Z,47.58
2023-04-05T02:43:41.352Z,47.74
2023-04-05T02:46:08.293Z,47.70
2023-04-05T02:48:39.484Z,47.43
2023-04-05T02:51:07.063Z,47.52
2023-04-05T02:53:34.643Z,47.46
2023-04-05T02:56:06.000Z,47.61
2023-04-05T02:58:35.971Z,47.66
2023-04-05T03:01:06.014Z,47.30
2023-04-05T03:03:37.500Z,47.56
2023-04-05T03:06:13.435Z,47.16
2023-04-05T03:08:49.193Z,47.52
2023-04-05T03:11:20.898Z,47.84
2023-04-05T03:13:51.693Z,47.47
2023-04-05T03:16:34.759Z,47.58
2023-04-05T03:19:09.137Z,47.62
2023-04-05T03:21:41.098Z,47.76
2023-04-05T03:24:22.250Z,47.51
2023-04-05T03:26:49.795Z,47.71
2023-04-05T03:29:20.174Z,47.87
2023-04-05T03:31:49.909Z,47.96
2023-04-05T03:34:19.518Z,48.05
2023-04-05T03:36:48.123Z,48.00
2023-04-05T03:39:30.213Z,47.54
2023-04-05T03:41:57.095Z,47.82
2023-04-05T03:44:24.010Z,47.71
2023-04-05T03:46:50.923Z,47.64
2023-04-05T03:49:17.866Z,47.80
2023-04-05T03:51:44.776Z,48.11
2023-04-05T03:54:11.789Z,48.49
2023-04-05T03:56:39.339Z,48.29
2023-04-05T03:59:13.571Z,48.31
2023-04-05T04:01:41.039Z,48.16
2023-04-05T04:04:08.130Z,48.41
2023-04-05T04:06:35.123Z,48.12
2023-04-05T04:09:02.877Z,48.31
2023-04-05T04:11:31.157Z,48.44
2023-04-05T04:14:01.667Z,48.16
2023-04-05T04:17:06.771Z,48.37
2023-04-05T04:19:49.849Z,48.39
2023-04-05T04:22:38.815Z,48.43
2023-04-05T04:25:20.259Z,48.51
2023-04-05T04:28:07.956Z,48.38
2023-04-05T04:31:04.876Z,48.28
2023-04-05T04:33:51.047Z,48.47
2023-04-05T04:37:01.160Z,48.39
2023-04-05T04:39:45.089Z,48.25
2023-04-05T04:42:33.742Z,48.40
2023-04-05T04:45:20.082Z,48.54
2023-04-05T04:48:16.383Z,48.63
2023-04-05T04:50:57.372Z,48.34
2023-04-05T04:53:24.492Z,48.68
2023-04-05T04:55:51.359Z,48.26
2023-04-05T04:58:18.297Z,48.34
2023-04-05T05:00:53.050Z,48.72
2023-04-05T05:03:19.960Z,48.89
2023-04-05T05:05:50.223Z,48.74
2023-04-05T05:08:21.940Z,49.27
2023-04-05T05:10:54.845Z,49.06
2023-04-05T05:13:21.740Z,49.40
2023-04-05T05:15:48.633Z,49.24
2023-04-05T05:18:16.165Z,49.78
2023-04-05T05:20:43.454Z,50.04
2023-04-05T05:23:10.541Z,49.98
2023-04-05T05:25:38.467Z,49.92
2023-04-05T05:28:05.734Z,49.58
2023-04-05T05:30:33.518Z,49.74
2023-04-05T05:33:01.258Z,49.96
2023-04-05T05:35:28.304Z,49.84
2023-04-05T05:37:55.475Z,49.85
2023-04-05T05:40:22.374Z,50.07
2023-04-05T05:42:49.642Z,50.00
2023-04-05T05:45:16.575Z,49.98
2023-04-05T05:47:43.515Z,50.17
2023-04-05T05:50:10.949Z,50.37
2023-04-05T05:52:38.830Z,50.30
2023-04-05T05:55:06.179Z,50.31
2023-04-05T05:57:33.035Z,50.23
2023-04-05T05:59:59.879Z,50.49
2023-04-05T06:02:27.478Z,50.57
2023-04-05T06:04:55.318Z,50.59
2023-04-05T06:07:22.577Z,50.49
2023-04-05T06:09:49.448Z,50.62
2023-04-05T06:12:16.300Z,50.69
2023-04-05T06:14:43.142Z,51.18
2023-04-05T06:17:10.001Z,51.58
2023-04-05T06:19:36.896Z,51.58
2023-04-05T06:22:03.905Z,51.83
2023-04-05T06:24:32.041Z,52.24
2023-04-05T06:26:59.359Z,52.28
2023-04-05T06:29:26.307Z,52.74
2023-04-05T06:31:54.249Z,53.43
2023-04-05T06:34:21.237Z,53.99
2023-04-05T06:36:48.195Z,53.76
2023-04-05T06:39:15.117Z,53.81
2023-04-05T06:41:42.087Z,53.47
2023-04-05T06:44:09.306Z,53.97
2023-04-05T06:46:36.210Z,54.04
2023-04-05T06:49:04.158Z,54.11
2023-04-05T06:51:31.742Z,54.27
2023-04-05T06:53:58.819Z,54.49
2023-04-05T06:56:25.854Z,53.78
2023-04-05T06:58:53.083Z,54.28
2023-04-05T07:01:20.204Z,55.22
2023-04-05T07:03:47.169Z,54.81
2023-04-05T07:06:14.304Z,55.40
2023-04-05T07:08:41.181Z,55.67
2023-04-05T07:11:08.229Z,55.81
2023-04-05T07:13:35.100Z,55.97
2023-04-05T07:16:03.329Z,55.90
2023-04-05T07:18:30.658Z,55.90
2023-04-05T07:21:03.724Z,55.67
2023-04-05T07:23:31.169Z,56.57
2023-04-05T07:26:04.659Z,56.04
2023-04-05T07:28:33.445Z,56.20
2023-04-05T07:31:00.371Z,56.20
2023-04-05T07:33:27.773Z,55.91
2023-04-05T07:35:57.969Z,55.85
2023-04-05T07:38:26.049Z,55.80
2023-04-05T07:40:53.004Z,55.51
2023-04-05T07:43:20.145Z,55.91
2023-04-05T07:45:47.053Z,55.80
2023-04-05T07:48:13.939Z,55.67
2023-04-05T07:50:42.583Z,55.39
2023-04-05T07:53:09.711Z,55.56
2023-04-05T07:55:39.051Z,55.26
2023-04-05T07:58:05.922Z,55.60
2023-04-05T08:00:32.807Z,55.62
2023-04-05T08:03:02.044Z,55.47
2023-04-05T08:05:29.633Z,54.94
2023-04-05T08:07:58.132Z,54.79
2023-04-05T08:10:25.635Z,54.31
2023-04-05T08:12:53.146Z,54.56
2023-04-05T08:15:20.099Z,54.39
2023-04-05T08:17:47.067Z,53.97
2023-04-05T08:20:14.041Z,54.30
2023-04-05T08:22:40.935Z,54.19
2023-04-05T08:25:08.782Z,54.17
2023-04-05T08:27:35.705Z,53.98
2023-04-05T08:30:02.610Z,53.69
2023-04-05T08:32:29.598Z,53.31
2023-04-05T08:34:56.532Z,53.23
2023-04-05T08:37:23.413Z,52.69
2023-04-05T08:39:50.384Z,52.75
2023-04-05T08:42:19.346Z,52.39
2023-04-05T08:44:51.703Z,52.13
2023-04-05T08:47:23.940Z,52.09
2023-04-05T08:49:50.918Z,52.11
2023-04-05T08:52:18.571Z,52.06
2023-04-05T08:54:45.692Z,51.99
2023-04-05T08:57:13.425Z,52.00
2023-04-05T08:59:43.972Z,52.00
2023-04-05T09:02:19.636Z,51.51
2023-04-05T09:04:48.748Z,51.50
2023-04-05T09:07:16.569Z,51.19
2023-04-05T09:09:49.551Z,51.44
2023-04-05T09:12:16.803Z,51.45
2023-04-05T09:14:43.903Z,51.25
2023-04-05T09:17:11.691Z,51.13
2023-04-05T09:19:39.052Z,51.12
2023-04-05T09:22:08.639Z,50.92
2023-04-05T09:24:42.728Z,50.68
2023-04-05T09:27:18.491Z,50.28
2023-04-05T09:29:50.524Z,49.87
2023-04-05T09:32:19.232Z,50.34
2023-04-05T09:34:46.226Z,50.22
2023-04-05T09:37:22.300Z,49.88
2023-04-05T09:39:51.978Z,49.36
2023-04-05T09:42:22.946Z,48.83
2023-04-05T09:45:02.663Z,48.55
2023-04-05T09:47:35.081Z,48.78
2023-04-05T09:50:19.570Z,48.24
2023-04-05T09:52:47.040Z,48.22
2023-04-05T09:55:14.377Z,48.17
2023-04-05T09:57:43.835Z,47.74
2023-04-05T10:00:31.306Z,46.71
2023-04-05T10:02:58.416Z,46.64
2023-04-05T10:05:29.245Z,46.85
2023-04-05T10:07:56.427Z,46.53
2023-04-05T10:10:24.741Z,46.30
2023-04-05T10:12:53.546Z,46.76
2023-04-05T10:15:20.517Z,46.87
2023-04-05T10:17:53.297Z,47.18
2023-04-05T10:20:22.374Z,46.99
2023-04-05T10:22:57.568Z,47.33
2023-04-05T10:25:54.216Z,47.29
2023-04-05T10:28:32.736Z,47.14
2023-04-05T10:31:37.256Z,47.43
2023-04-05T10:34:07.766Z,46.64
2023-04-05T10:36:59.107Z,46.47
2023-04-05T10:39:42.883Z,46.22
2023-04-05T10:42:28.229Z,46.32
2023-04-05T10:45:04.608Z,46.35
2023-04-05T10:47:37.229Z,46.58
2023-04-05T10:50:09.239Z,46.51
2023-04-05T10:52:37.267Z,45.99
2023-04-05T10:55:05.501Z,45.64
2023-04-05T10:57:33.297Z,45.23
2023-04-05T11:00:01.426Z,44.47
2023-04-05T11:02:30.210Z,44.17
2023-04-05T11:04:57.376Z,43.76
2023-04-05T11:07:24.432Z,43.53
2023-04-05T11:10:02.587Z,43.00
2023-04-05T11:12:53.431Z,43.04
2023-04-05T11:15:28.868Z,43.24
2023-04-05T11:18:17.667Z,43.43
2023-04-05T11:20:57.792Z,43.25
2023-04-05T11:23:25.531Z,42.91
2023-04-05T11:26:06.612Z,42.66
2023-04-05T11:28:40.465Z,42.10
2023-04-05T11:31:19.632Z,41.72
2023-04-05T11:33:59.700Z,41.17
2023-04-05T11:36:36.836Z,41.18
2023-04-05T11:39:19.031Z,41.30
2023-04-05T11:42:02.144Z,41.58
2023-04-05T11:44:46.930Z,41.64
2023-04-05T11:47:17.084Z,40.38
2023-04-05T11:49:47.191Z,40.62
2023-04-05T11:52:16.851Z,40.83
2023-04-05T11:54:49.099Z,41.19
2023-04-05T11:57:21.390Z,40.85
2023-04-05T11:59:51.954Z,41.00
2023-04-05T12:02:19.915Z,40.87
2023-04-05T12:04:58.042Z,40.84
2023-04-05T12:07:29.394Z,40.48
2023-04-05T12:10:11.916Z,40.30
2023-04-05T12:12:43.807Z,40.26
2023-04-05T12:15:14.498Z,40.86
2023-04-05T12:17:51.866Z,40.70
2023-04-05T12:20:26.119Z,40.81
2023-04-05T12:22:55.597Z,40.62
2023-04-05T12:25:24.233Z,40.21
2023-04-05T12:27:51.214Z,40.35
2023-04-05T12:30:21.476Z,39.88
2023-04-05T12:32:53.983Z,39.75
2023-04-05T12:35:32.652Z,39.79
2023-04-05T12:38:01.601Z,39.26
2023-04-05T12:40:40.626Z,39.59
2023-04-05T12:43:09.406Z,39.58
2023-04-05T12:45:40.552Z,39.66
2023-04-05T12:48:20.093Z,39.52
2023-04-05T12:50:48.919Z,39.48
2023-04-05T12:53:21.511Z,39.22
2023-04-05T12:55:53.759Z,39.18
2023-04-05T12:58:22.824Z,39.32
2023-04-05T13:00:49.741Z,39.43
2023-04-05T13:03:20.559Z,39.07
2023-04-05T13:05:51.409Z,39.13
2023-04-05T13:08:18.669Z,38.89
2023-04-05T13:10:47.540Z,39.18
2023-04-05T13:13:18.521Z,38.97
2023-04-05T13:15:45.733Z,39.22
2023-04-05T13:18:16.301Z,39.65
2023-04-05T13:20:43.656Z,39.65
2023-04-05T13:23:12.105Z,39.63
2023-04-05T13:25:40.872Z,39.82
2023-04-05T13:28:08.399Z,39.68
2023-04-05T13:30:35.373Z,39.26
2023-04-05T13:33:04.435Z,39.42
2023-04-05T13:35:31.936Z,39.82
2023-04-05T13:38:00.061Z,39.89
2023-04-05T13:40:28.054Z,40.00
2023-04-05T13:42:54.926Z,40.38
2023-04-05T13:45:21.806Z,40.65
2023-04-05T13:47:48.743Z,40.81
2023-04-05T13:50:15.806Z,40.89
2023-04-05T13:52:42.716Z,41.39
2023-04-05T13:55:09.671Z,42.31
2023-04-05T13:57:36.532Z,42.01
2023-04-05T14:00:03.815Z,42.49
2023-04-05T14:02:39.110Z,42.48
2023-04-05T14:05:07.758Z,42.93
2023-04-05T14:07:35.206Z,42.98
2023-04-05T14:10:02.127Z,43.08
2023-04-05T14:12:29.791Z,43.44
2023-04-05T14:14:56.694Z,43.44
2023-04-05T14:17:23.607Z,43.54
2023-04-05T14:19:50.597Z,43.94
2023-04-05T14:22:17.529Z,43.67
2023-04-05T14:24:44.429Z,43.69
2023-04-05T14:27:11.331Z,44.63
2023-04-05T14:29:38.482Z,44.70
2023-04-05T14:32:05.718Z,44.66
2023-04-05T14:34:33.761Z,44.68
2023-04-05T14:37:02.983Z,45.01
2023-04-05T14:39:29.927Z,45.05
2023-04-05T14:41:57.567Z,45.29
2023-04-05T14:44:25.804Z,45.42
2023-04-05T14:46:52.714Z,45.70
2023-04-05T14:49:19.609Z,45.42
2023-04-05T14:51:47.470Z,45.95
2023-04-05T14:54:14.399Z,46.31
2023-04-05T14:56:41.291Z,46.37
2023-04-05T14:59:08.251Z,47.01
2023-04-05T15:01:35.406Z,46.63
2023-04-05T15:04:02.437Z,46.60
2023-04-05T15:06:29.373Z,47.26
2023-04-05T15:08:56.356Z,47.37
2023-04-05T15:11:23.244Z,47.60
2023-04-05T15:13:50.142Z,47.60
2023-04-05T15:16:17.059Z,47.97
2023-04-05T15:18:43.994Z,47.93
2023-04-05T15:21:11.073Z,48.01
2023-04-05T15:23:38.055Z,47.49
2023-04-05T15:26:04.936Z,47.69
2023-04-05T15:28:31.823Z,47.58
2023-04-05T15:30:58.824Z,47.29
2023-04-05T15:33:25.748Z,47.71
2023-04-05T15:35:52.671Z,47.30
2023-04-05T15:38:19.617Z,47.40
2023-04-05T15:40:49.620Z,47.08
2023-04-05T15:43:16.584Z,47.69
2023-04-05T15:45:43.464Z,47.73
2023-04-05T15:48:10.427Z,47.92
2023-04-05T15:50:37.313Z,48.06
2023-04-05T15:53:04.195Z,47.93
2023-04-05T15:55:31.113Z,47.46
2023-04-05T15:57:58.008Z,47.73
2023-04-05T16:00:26.057Z,47.63
2023-04-05T16:02:55.600Z,47.67
2023-04-05T16:05:23.081Z,47.92
2023-04-05T16:07:50.030Z,47.77
2023-04-05T16:10:17.010Z,47.67
2023-04-05T16:12:43.948Z,47.50
2023-04-05T16:15:11.109Z,47.51
2023-04-05T16:17:38.361Z,47.69
2023-04-05T16:20:06.484Z,47.75
2023-04-05T16:22:33.391Z,47.53
2023-04-05T16:25:00.698Z,47.50
2023-04-05T16:27:27.610Z,47.66
2023-04-05T16:29:54.583Z,47.15
2023-04-05T16:32:21.746Z,47.44
2023-04-05T16:34:48.748Z,47.36
2023-04-05T16:37:15.638Z,47.28
2023-04-05T16:39:42.546Z,47.46
2023-04-05T16:42:09.668Z,47.49
2023-04-05T16:44:36.568Z,47.49
2023-04-05T16:47:03.473Z,47.40
2023-04-05T16:49:30.478Z,47.88
2023-04-05T16:51:57.504Z,47.99
2023-04-05T16:54:24.575Z,47.88
2023-04-05T16:56:51.723Z,48.37
2023-04-05T16:59:18.668Z,48.06
2023-04-05T17:01:46.262Z,48.06
2023-04-05T17:04:13.229Z,47.89
2023-04-05T17:06:40.128Z,47.97
2023-04-05T17:09:07.090Z,47.91
2023-04-05T17:11:34.092Z,48.09
2023-04-05T17:14:01.174Z,47.55
2023-04-05T17:16:28.121Z,47.70
2023-04-05T17:18:55.081Z,47.72
2023-04-05T17:21:22.825Z,47.76
2023-04-05T17:23:49.728Z,47.58
2023-04-05T17:26:16.666Z,47.72
2023-04-05T17:28:43.589Z,47.65
2023-04-05T17:31:11.331Z,47.87
2023-04-05T17:33:38.310Z,47.84
2023-04-05T17:36:05.304Z,48.34
2023-04-05T17:38:32.227Z,48.07
2023-04-05T17:40:59.493Z,48.07
2023-04-05T17:43:26.774Z,48.32
2023-04-05T17:45:54.547Z,48.30
2023-04-05T17:48:21.728Z,48.36
2023-04-05T17:50:48.736Z,48.32
2023-04-05T17:53:18.774Z,48.58
2023-04-05T17:55:45.701Z,48.64
2023-04-05T17:58:12.582Z,48.85
2023-04-05T18:00:39.484Z,48.61
2023-04-05T18:03:08.457Z,48.65
2023-04-05T18:05:35.699Z,48.83
2023-04-05T18:08:02.605Z,48.85
2023-04-05T18:10:29.507Z,49.15
2023-04-05T18:12:56.437Z,49.21
2023-04-05T18:15:23.408Z,49.21
2023-04-05T18:17:50.885Z,49.47
2023-04-05T18:20:17.981Z,49.44
2023-04-05T18:22:45.112Z,49.76
2023-04-05T18:25:12.929Z,49.70
2023-04-05T18:27:42.352Z,50.03
2023-04-05T18:30:11.022Z,50.05
2023-04-05T18:32:40.972Z,50.02
2023-04-05T18:35:09.654Z,50.04
2023-04-05T18:37:36.972Z,50.19
2023-04-05T18:40:05.099Z,50.21
2023-04-05T18:42:32.787Z,49.95
2023-04-05T18:45:01.025Z,50.13
2023-04-05T18:47:28.499Z,50.17
2023-04-05T18:49:55.487Z,50.53
2023-04-05T18:52:25.843Z,50.60
2023-04-05T18:54:53.505Z,50.54
2023-04-05T18:57:20.694Z,50.70
2023-04-05T18:59:47.687Z,50.55
2023-04-05T19:02:14.678Z,50.80
2023-04-05T19:04:41.631Z,50.92
2023-04-05T19:07:08.540Z,51.10
2023-04-05T19:09:35.628Z,51.09
2023-04-05T19:12:02.545Z,51.37
2023-04-05T19:14:29.517Z,51.22
2023-04-05T19:16:56.484Z,51.48
2023-04-05T19:19:23.375Z,51.39
2023-04-05T19:21:50.348Z,51.54
2023-04-05T19:24:17.286Z,51.31
2023-04-05T19:26:44.861Z,51.80
2023-04-05T19:29:14.699Z,51.55
2023-04-05T19:31:41.696Z,51.70
2023-04-05T19:34:08.772Z,51.57
2023-04-05T19:36:36.926Z,51.54
2023-04-05T19:39:05.463Z,51.73
2023-04-05T19:41:33.127Z,52.09
2023-04-05T19:44:00.692Z,51.69
2023-04-05T19:46:33.708Z,51.82
2023-04-05T19:49:10.981Z,51.89
2023-04-05T19:51:38.305Z,51.93
2023-04-05T19:54:14.942Z,51.84
2023-04-05T19:56:43.076Z,52.08
2023-04-05T19:59:12.635Z,51.87
2023-04-05T20:01:41.078Z,51.84
2023-04-05T20:04:19.322Z,52.03
2023-04-05T20:06:53.062Z,51.88
2023-04-05T20:09:29.245Z,52.28
2023-04-05T20:12:01.947Z,52.08
2023-04-05T20:14:45.859Z,52.13
2023-04-05T20:17:13.257Z,51.99
2023-04-05T20:19:41.755Z,52.08
2023-04-05T20:22:09.863Z,52.05
2023-04-05T20:24:39.473Z,51.99
2023-04-05T20:27:06.521Z,52.02
2023-04-05T20:29:33.653Z,51.94
2023-04-05T20:32:01.796Z,52.15
2023-04-05T20:34:32.599Z,51.96
2023-04-05T20:37:04.008Z,51.88
2023-04-05T20:39:31.365Z,51.72
2023-04-05T20:41:59.383Z,52.11
2023-04-05T20:44:26.604Z,52.11
2023-04-05T20:46:56.332Z,52.08
2023-04-05T20:49:26.098Z,52.33
2023-04-05T20:51:57.242Z,51.96
2023-04-05T20:54:24.327Z,52.21
2023-04-05T20:56:51.303Z,52.18
2023-04-05T20:59:18.248Z,52.45
2023-04-05T21:01:47.222Z,52.15
2023-04-05T21:04:14.532Z,52.47
2023-04-05T21:06:41.658Z,52.47
2023-04-05T21:09:08.862Z,52.30
2023-04-05T21:11:36.065Z,52.60
2023-04-05T21:14:03.031Z,52.49
2023-04-05T21:16:30.467Z,52.55
2023-04-05T21:18:57.438Z,52.40
2023-04-05T21:21:24.348Z,52.60
2023-04-05T21:23:51.233Z,52.55
2023-04-05T21:26:18.149Z,52.66
2023-04-05T21:28:45.024Z,52.97
2023-04-05T21:31:11.957Z,53.11
2023-04-05T21:33:38.957Z,53.01
2023-04-05T21:36:06.368Z,53.17
2023-04-05T21:38:33.274Z,53.05
2023-04-05T21:41:00.151Z,53.37
2023-04-05T21:43:27.028Z,53.41
2023-04-05T21:45:53.958Z,53.58
2023-04-05T21:48:21.190Z,53.41
2023-04-05T21:50:48.106Z,53.44
2023-04-05T21:53:15.110Z,53.33
2023-04-05T21:55:42.024Z,53.41
2023-04-05T21:58:08.974Z,53.50
2023-04-05T22:00:36.158Z,53.45
2023-04-05T22:03:03.056Z,53.55
2023-04-05T22:05:37.911Z,53.40
2023-04-05T22:08:07.278Z,53.52
2023-04-05T22:10:35.540Z,53.54
2023-04-05T22:13:02.419Z,53.53
2023-04-05T22:15:29.384Z,53.53
2023-04-05T22:17:56.275Z,53.23
2023-04-05T22:20:23.204Z,53.43
2023-04-05T22:22:50.097Z,53.79
2023-04-05T22:25:17.022Z,53.47
2023-04-05T22:27:43.937Z,53.50
2023-04-05T22:30:11.440Z,53.56
2023-04-05T22:32:38.372Z,53.42
2023-04-05T22:35:05.858Z,53.70
2023-04-05T22:37:35.944Z,53.74
2023-04-05T22:40:04.833Z,53.63
2023-04-05T22:42:31.902Z,53.59
2023-04-05T22:44:58.827Z,53.70
2023-04-05T22:47:26.013Z,53.67
2023-04-05T22:49:53.032Z,53.65
2023-04-05T22:52:20.021Z,54.04
2023-04-05T22:54:46.968Z,54.24
2023-04-05T22:57:13.967Z,54.25
2023-04-05T22:59:41.213Z,54.26
2023-04-05T23:02:09.543Z,54.39
2023-04-05T23:04:36.496Z,54.60
2023-04-05T23:07:03.452Z,54.57
2023-04-05T23:09:30.574Z,54.51
2023-04-05T23:11:57.453Z,54.75
2023-04-05T23:14:24.338Z,55.16
2023-04-05T23:16:51.246Z,54.99
2023-04-05T23:19:18.145Z,54.94
2023-04-05T23:21:45.044Z,55.09
2023-04-05T23:24:12.333Z,55.19
2023-04-05T23:26:39.221Z,55.09
2023-04-05T23:29:06.823Z,55.15
2023-04-05T23:31:34.129Z,55.16
2023-04-05T23:34:01.252Z,55.10
2023-04-05T23:36:28.690Z,55.08
2023-04-05T23:38:55.802Z,55.00
2023-04-05T23:41:22.707Z,54.99
2023-04-05T23:43:49.645Z,54.97
2023-04-05T23:46:16.643Z,54.95
2023-04-05T23:48:43.626Z,55.01
2023-04-05T23:51:10.584Z,54.77
2023-04-05T23:53:37.718Z,54.81
2023-04-05T23:56:05.007Z,55.15
2023-04-05T23:58:31.928Z,54.82
